sensor_id;sensor_type;location;lat;lon;timestamp;temperature;humidity
59572;DHT22;59406;45.602;11.904;2022-12-11T00:01:19;10.30;93.50
59572;DHT22;59406;45.602;11.904;2022-12-11T00:03:46;10.20;93.50
59572;DHT22;59406;45.602;11.904;2022-12-11T00:06:14;10.20;93.60
59572;DHT22;59406;45.602;11.904;2022-12-11T00:08:40;10.30;93.70
59572;DHT22;59406;45.602;11.904;2022-12-11T00:11:15;10.20;93.60
59572;DHT22;59406;45.602;11.904;2022-12-11T00:13:41;10.30;93.50
59572;DHT22;59406;45.602;11.904;2022-12-11T00:16:08;10.30;93.50
59572;DHT22;59406;45.602;11.904;2022-12-11T00:18:34;10.30;93.60
59572;DHT22;59406;45.602;11.904;2022-12-11T00:21:01;10.20;93.60
59572;DHT22;59406;45.602;11.904;2022-12-11T00:23:27;10.20;93.70
59572;DHT22;59406;45.602;11.904;2022-12-11T00:25:53;10.20;93.60
59572;DHT22;59406;45.602;11.904;2022-12-11T00:28:19;10.20;94.00
59572;DHT22;59406;45.602;11.904;2022-12-11T00:30:46;10.20;93.60
59572;DHT22;59406;45.602;11.904;2022-12-11T00:33:13;10.20;93.70
59572;DHT22;59406;45.602;11.904;2022-12-11T00:35:41;10.10;93.90
59572;DHT22;59406;45.602;11.904;2022-12-11T00:38:09;10.10;94.00
59572;DHT22;59406;45.602;11.904;2022-12-11T00:40:38;10.10;94.10
59572;DHT22;59406;45.602;11.904;2022-12-11T00:43:04;10.20;94.10
59572;DHT22;59406;45.602;11.904;2022-12-11T00:45:33;10.20;94.10
59572;DHT22;59406;45.602;11.904;2022-12-11T00:48:00;10.10;94.10
59572;DHT22;59406;45.602;11.904;2022-12-11T00:50:26;10.10;94.10
59572;DHT22;59406;45.602;11.904;2022-12-11T00:52:52;10.10;94.30
59572;DHT22;59406;45.602;11.904;2022-12-11T00:55:18;10.20;94.20
59572;DHT22;59406;45.602;11.904;2022-12-11T00:57:44;10.20;94.00
59572;DHT22;59406;45.602;11.904;2022-12-11T01:00:10;10.30;93.80
59572;DHT22;59406;45.602;11.904;2022-12-11T01:02:37;10.30;93.90
59572;DHT22;59406;45.602;11.904;2022-12-11T01:05:03;10.40;93.80
59572;DHT22;59406;45.602;11.904;2022-12-11T01:07:29;10.30;93.80
59572;DHT22;59406;45.602;11.904;2022-12-11T01:09:55;10.20;94.10
59572;DHT22;59406;45.602;11.904;2022-12-11T01:12:40;10.30;94.00
59572;DHT22;59406;45.602;11.904;2022-12-11T01:15:06;10.30;94.10
59572;DHT22;59406;45.602;11.904;2022-12-11T01:17:32;10.40;93.90
59572;DHT22;59406;45.602;11.904;2022-12-11T01:19:58;10.40;93.60
59572;DHT22;59406;45.602;11.904;2022-12-11T01:22:24;10.40;93.70
59572;DHT22;59406;45.602;11.904;2022-12-11T01:24:50;10.40;93.70
59572;DHT22;59406;45.602;11.904;2022-12-11T01:27:15;10.40;93.70
59572;DHT22;59406;45.602;11.904;2022-12-11T01:29:41;10.50;93.70
59572;DHT22;59406;45.602;11.904;2022-12-11T01:32:07;10.40;93.60
59572;DHT22;59406;45.602;11.904;2022-12-11T01:34:33;10.40;93.80
59572;DHT22;59406;45.602;11.904;2022-12-11T01:36:59;10.40;93.70
59572;DHT22;59406;45.602;11.904;2022-12-11T01:39:25;10.40;93.40
59572;DHT22;59406;45.602;11.904;2022-12-11T01:41:57;10.40;93.50
59572;DHT22;59406;45.602;11.904;2022-12-11T01:46:49;10.40;93.80
59572;DHT22;59406;45.602;11.904;2022-12-11T01:49:16;10.40;93.80
59572;DHT22;59406;45.602;11.904;2022-12-11T01:52:03;10.30;93.90
59572;DHT22;59406;45.602;11.904;2022-12-11T01:54:31;10.20;94.20
59572;DHT22;59406;45.602;11.904;2022-12-11T01:57:03;10.00;94.50
59572;DHT22;59406;45.602;11.904;2022-12-11T01:59:32;9.90;95.00
59572;DHT22;59406;45.602;11.904;2022-12-11T02:02:07;9.90;95.10
59572;DHT22;59406;45.602;11.904;2022-12-11T02:04:37;9.90;95.30
59572;DHT22;59406;45.602;11.904;2022-12-11T02:07:03;9.90;95.30
59572;DHT22;59406;45.602;11.904;2022-12-11T02:09:33;9.90;95.30
59572;DHT22;59406;45.602;11.904;2022-12-11T02:17:24;9.90;95.20
59572;DHT22;59406;45.602;11.904;2022-12-11T02:30:29;10.00;94.80
59572;DHT22;59406;45.602;11.904;2022-12-11T02:32:58;9.90;95.10
59572;DHT22;59406;45.602;11.904;2022-12-11T02:35:29;10.00;95.10
59572;DHT22;59406;45.602;11.904;2022-12-11T02:38:01;10.10;94.90
59572;DHT22;59406;45.602;11.904;2022-12-11T02:40:30;10.10;95.10
59572;DHT22;59406;45.602;11.904;2022-12-11T02:43:01;10.10;94.90
59572;DHT22;59406;45.602;11.904;2022-12-11T02:45:27;10.20;94.90
59572;DHT22;59406;45.602;11.904;2022-12-11T02:47:57;10.20;94.70
59572;DHT22;59406;45.602;11.904;2022-12-11T02:50:24;10.10;94.70
59572;DHT22;59406;45.602;11.904;2022-12-11T02:52:53;10.20;94.60
59572;DHT22;59406;45.602;11.904;2022-12-11T02:55:21;10.30;94.50
59572;DHT22;59406;45.602;11.904;2022-12-11T02:57:52;10.30;94.50
59572;DHT22;59406;45.602;11.904;2022-12-11T03:00:19;10.30;94.40
59572;DHT22;59406;45.602;11.904;2022-12-11T03:02:46;10.30;94.40
59572;DHT22;59406;45.602;11.904;2022-12-11T03:05:13;10.30;94.40
59572;DHT22;59406;45.602;11.904;2022-12-11T03:07:42;10.30;94.60
59572;DHT22;59406;45.602;11.904;2022-12-11T03:10:10;10.20;94.50
59572;DHT22;59406;45.602;11.904;2022-12-11T03:12:42;10.20;94.50
59572;DHT22;59406;45.602;11.904;2022-12-11T03:15:13;10.20;94.50
59572;DHT22;59406;45.602;11.904;2022-12-11T03:18:20;10.10;94.60
59572;DHT22;59406;45.602;11.904;2022-12-11T03:21:02;10.20;94.50
59572;DHT22;59406;45.602;11.904;2022-12-11T03:23:34;10.30;94.50
59572;DHT22;59406;45.602;11.904;2022-12-11T03:26:09;10.20;94.50
59572;DHT22;59406;45.602;11.904;2022-12-11T03:28:49;10.20;94.50
59572;DHT22;59406;45.602;11.904;2022-12-11T03:31:24;10.20;94.50
59572;DHT22;59406;45.602;11.904;2022-12-11T03:33:53;10.10;94.50
59572;DHT22;59406;45.602;11.904;2022-12-11T03:36:29;10.20;94.50
59572;DHT22;59406;45.602;11.904;2022-12-11T03:39:02;10.20;94.40
59572;DHT22;59406;45.602;11.904;2022-12-11T03:41:32;10.20;94.40
59572;DHT22;59406;45.602;11.904;2022-12-11T03:43:59;10.20;94.60
59572;DHT22;59406;45.602;11.904;2022-12-11T03:46:34;10.20;94.60
59572;DHT22;59406;45.602;11.904;2022-12-11T03:49:09;10.10;94.60
59572;DHT22;59406;45.602;11.904;2022-12-11T03:51:38;10.10;94.80
59572;DHT22;59406;45.602;11.904;2022-12-11T03:54:05;10.10;94.40
59572;DHT22;59406;45.602;11.904;2022-12-11T03:56:33;10.10;94.60
59572;DHT22;59406;45.602;11.904;2022-12-11T03:59:00;10.10;94.50
59572;DHT22;59406;45.602;11.904;2022-12-11T04:01:26;10.20;94.50
59572;DHT22;59406;45.602;11.904;2022-12-11T04:03:52;10.10;94.40
59572;DHT22;59406;45.602;11.904;2022-12-11T04:06:19;10.00;94.40
59572;DHT22;59406;45.602;11.904;2022-12-11T04:08:44;10.00;94.40
59572;DHT22;59406;45.602;11.904;2022-12-11T04:11:11;9.90;94.40
59572;DHT22;59406;45.602;11.904;2022-12-11T04:13:55;9.90;94.50
59572;DHT22;59406;45.602;11.904;2022-12-11T04:16:39;9.90;94.60
59572;DHT22;59406;45.602;11.904;2022-12-11T04:19:05;9.80;94.60
59572;DHT22;59406;45.602;11.904;2022-12-11T04:21:50;9.80;94.50
59572;DHT22;59406;45.602;11.904;2022-12-11T04:24:34;9.70;94.20
59572;DHT22;59406;45.602;11.904;2022-12-11T04:27:00;9.70;94.60
59572;DHT22;59406;45.602;11.904;2022-12-11T04:29:26;9.70;94.30
59572;DHT22;59406;45.602;11.904;2022-12-11T04:31:52;9.50;94.20
59572;DHT22;59406;45.602;11.904;2022-12-11T04:34:19;9.40;94.10
59572;DHT22;59406;45.602;11.904;2022-12-11T04:36:45;9.30;93.80
59572;DHT22;59406;45.602;11.904;2022-12-11T04:39:11;9.20;93.80
59572;DHT22;59406;45.602;11.904;2022-12-11T04:41:37;9.10;94.00
59572;DHT22;59406;45.602;11.904;2022-12-11T04:44:04;9.00;93.50
59572;DHT22;59406;45.602;11.904;2022-12-11T04:46:30;8.80;93.80
59572;DHT22;59406;45.602;11.904;2022-12-11T04:48:56;8.90;93.80
59572;DHT22;59406;45.602;11.904;2022-12-11T04:51:22;9.00;93.60
59572;DHT22;59406;45.602;11.904;2022-12-11T04:53:48;8.90;93.70
59572;DHT22;59406;45.602;11.904;2022-12-11T04:56:15;8.90;93.50
59572;DHT22;59406;45.602;11.904;2022-12-11T04:58:42;8.80;93.70
59572;DHT22;59406;45.602;11.904;2022-12-11T05:01:10;8.60;93.50
59572;DHT22;59406;45.602;11.904;2022-12-11T05:03:37;8.50;93.90
59572;DHT22;59406;45.602;11.904;2022-12-11T05:06:03;8.40;93.80
59572;DHT22;59406;45.602;11.904;2022-12-11T05:08:29;8.30;93.90
59572;DHT22;59406;45.602;11.904;2022-12-11T05:11:02;8.50;94.00
59572;DHT22;59406;45.602;11.904;2022-12-11T05:13:29;8.50;94.00
59572;DHT22;59406;45.602;11.904;2022-12-11T05:15:55;8.30;94.20
59572;DHT22;59406;45.602;11.904;2022-12-11T05:18:22;8.40;94.30
59572;DHT22;59406;45.602;11.904;2022-12-11T05:21:02;8.30;94.30
59572;DHT22;59406;45.602;11.904;2022-12-11T05:23:29;8.30;94.40
59572;DHT22;59406;45.602;11.904;2022-12-11T05:25:59;8.40;94.40
59572;DHT22;59406;45.602;11.904;2022-12-11T05:28:27;8.20;94.50
59572;DHT22;59406;45.602;11.904;2022-12-11T05:30:58;8.10;94.60
59572;DHT22;59406;45.602;11.904;2022-12-11T05:33:24;8.20;94.50
59572;DHT22;59406;45.602;11.904;2022-12-11T05:35:51;8.10;94.20
59572;DHT22;59406;45.602;11.904;2022-12-11T05:38:17;8.10;94.20
59572;DHT22;59406;45.602;11.904;2022-12-11T05:40:43;8.00;94.30
59572;DHT22;59406;45.602;11.904;2022-12-11T05:43:09;8.00;94.10
59572;DHT22;59406;45.602;11.904;2022-12-11T05:45:34;8.00;93.80
59572;DHT22;59406;45.602;11.904;2022-12-11T05:48:00;7.90;93.20
59572;DHT22;59406;45.602;11.904;2022-12-11T05:50:26;8.00;93.20
59572;DHT22;59406;45.602;11.904;2022-12-11T05:52:52;7.90;93.10
59572;DHT22;59406;45.602;11.904;2022-12-11T05:55:18;8.00;93.20
59572;DHT22;59406;45.602;11.904;2022-12-11T05:57:44;8.10;93.00
59572;DHT22;59406;45.602;11.904;2022-12-11T06:00:11;8.10;93.00
59572;DHT22;59406;45.602;11.904;2022-12-11T06:02:37;8.10;93.00
59572;DHT22;59406;45.602;11.904;2022-12-11T06:05:03;8.10;92.80
59572;DHT22;59406;45.602;11.904;2022-12-11T06:07:29;8.10;92.90
59572;DHT22;59406;45.602;11.904;2022-12-11T06:09:55;8.10;93.00
59572;DHT22;59406;45.602;11.904;2022-12-11T06:12:21;8.20;93.10
59572;DHT22;59406;45.602;11.904;2022-12-11T06:14:47;8.30;93.10
59572;DHT22;59406;45.602;11.904;2022-12-11T06:17:12;8.10;92.90
59572;DHT22;59406;45.602;11.904;2022-12-11T06:19:38;8.10;92.90
59572;DHT22;59406;45.602;11.904;2022-12-11T06:22:04;8.00;93.00
59572;DHT22;59406;45.602;11.904;2022-12-11T06:24:30;8.10;93.10
59572;DHT22;59406;45.602;11.904;2022-12-11T06:26:56;8.10;93.30
59572;DHT22;59406;45.602;11.904;2022-12-11T06:29:22;8.00;93.20
59572;DHT22;59406;45.602;11.904;2022-12-11T06:31:48;7.90;93.30
59572;DHT22;59406;45.602;11.904;2022-12-11T06:34:14;7.90;93.40
59572;DHT22;59406;45.602;11.904;2022-12-11T06:36:40;7.80;93.50
59572;DHT22;59406;45.602;11.904;2022-12-11T06:39:06;8.00;93.40
59572;DHT22;59406;45.602;11.904;2022-12-11T06:41:33;8.00;93.30
59572;DHT22;59406;45.602;11.904;2022-12-11T06:43:58;8.10;93.40
59572;DHT22;59406;45.602;11.904;2022-12-11T06:46:24;7.90;93.40
59572;DHT22;59406;45.602;11.904;2022-12-11T06:48:50;7.80;93.50
59572;DHT22;59406;45.602;11.904;2022-12-11T06:51:19;7.80;93.30
59572;DHT22;59406;45.602;11.904;2022-12-11T06:53:53;7.80;93.60
59572;DHT22;59406;45.602;11.904;2022-12-11T06:56:21;7.80;93.70
59572;DHT22;59406;45.602;11.904;2022-12-11T06:58:47;7.80;93.60
59572;DHT22;59406;45.602;11.904;2022-12-11T07:01:21;7.80;93.70
59572;DHT22;59406;45.602;11.904;2022-12-11T07:03:48;7.70;93.60
59572;DHT22;59406;45.602;11.904;2022-12-11T07:06:14;7.60;93.50
59572;DHT22;59406;45.602;11.904;2022-12-11T07:08:40;7.50;93.30
59572;DHT22;59406;45.602;11.904;2022-12-11T07:11:09;7.50;93.20
59572;DHT22;59406;45.602;11.904;2022-12-11T07:13:35;7.30;93.30
59572;DHT22;59406;45.602;11.904;2022-12-11T07:16:02;7.40;93.20
59572;DHT22;59406;45.602;11.904;2022-12-11T07:18:30;7.50;93.20
59572;DHT22;59406;45.602;11.904;2022-12-11T07:20:59;7.30;92.90
59572;DHT22;59406;45.602;11.904;2022-12-11T07:23:26;7.20;93.00
59572;DHT22;59406;45.602;11.904;2022-12-11T07:25:53;7.20;92.80
59572;DHT22;59406;45.602;11.904;2022-12-11T07:28:19;7.20;92.80
59572;DHT22;59406;45.602;11.904;2022-12-11T07:30:45;7.30;92.70
59572;DHT22;59406;45.602;11.904;2022-12-11T07:33:11;7.30;92.90
59572;DHT22;59406;45.602;11.904;2022-12-11T07:35:36;7.30;93.00
59572;DHT22;59406;45.602;11.904;2022-12-11T07:38:02;7.30;92.60
59572;DHT22;59406;45.602;11.904;2022-12-11T07:40:28;7.20;92.90
59572;DHT22;59406;45.602;11.904;2022-12-11T07:42:54;7.20;92.80
59572;DHT22;59406;45.602;11.904;2022-12-11T07:45:20;7.20;92.90
59572;DHT22;59406;45.602;11.904;2022-12-11T07:47:46;7.10;92.90
59572;DHT22;59406;45.602;11.904;2022-12-11T07:50:12;7.00;93.20
59572;DHT22;59406;45.602;11.904;2022-12-11T07:52:38;7.10;93.10
59572;DHT22;59406;45.602;11.904;2022-12-11T07:55:04;7.10;93.20
59572;DHT22;59406;45.602;11.904;2022-12-11T07:57:30;7.00;93.10
59572;DHT22;59406;45.602;11.904;2022-12-11T07:59:56;7.00;93.10
59572;DHT22;59406;45.602;11.904;2022-12-11T08:02:21;7.10;93.20
59572;DHT22;59406;45.602;11.904;2022-12-11T08:04:49;7.20;92.70
59572;DHT22;59406;45.602;11.904;2022-12-11T08:07:14;7.10;92.80
59572;DHT22;59406;45.602;11.904;2022-12-11T08:09:40;7.20;92.70
59572;DHT22;59406;45.602;11.904;2022-12-11T08:12:06;7.10;92.60
59572;DHT22;59406;45.602;11.904;2022-12-11T08:14:32;7.20;92.50
59572;DHT22;59406;45.602;11.904;2022-12-11T08:16:58;7.10;92.50
59572;DHT22;59406;45.602;11.904;2022-12-11T08:19:24;7.20;92.40
59572;DHT22;59406;45.602;11.904;2022-12-11T08:21:50;7.10;92.20
59572;DHT22;59406;45.602;11.904;2022-12-11T08:24:16;7.10;92.30
59572;DHT22;59406;45.602;11.904;2022-12-11T08:26:45;7.20;92.40
59572;DHT22;59406;45.602;11.904;2022-12-11T08:29:11;7.30;92.10
59572;DHT22;59406;45.602;11.904;2022-12-11T08:31:38;7.40;92.10
59572;DHT22;59406;45.602;11.904;2022-12-11T08:34:04;7.40;92.20
59572;DHT22;59406;45.602;11.904;2022-12-11T08:36:30;7.50;92.30
59572;DHT22;59406;45.602;11.904;2022-12-11T08:38:56;7.40;92.00
59572;DHT22;59406;45.602;11.904;2022-12-11T08:41:25;7.40;92.40
59572;DHT22;59406;45.602;11.904;2022-12-11T08:43:52;7.50;92.20
59572;DHT22;59406;45.602;11.904;2022-12-11T08:46:24;7.70;92.40
59572;DHT22;59406;45.602;11.904;2022-12-11T08:48:51;7.60;92.00
59572;DHT22;59406;45.602;11.904;2022-12-11T08:51:20;7.70;92.30
59572;DHT22;59406;45.602;11.904;2022-12-11T08:53:47;7.40;91.60
59572;DHT22;59406;45.602;11.904;2022-12-11T08:56:15;7.60;92.00
59572;DHT22;59406;45.602;11.904;2022-12-11T08:58:42;7.60;92.10
59572;DHT22;59406;45.602;11.904;2022-12-11T09:01:19;7.60;91.90
59572;DHT22;59406;45.602;11.904;2022-12-11T09:03:46;7.40;91.90
59572;DHT22;59406;45.602;11.904;2022-12-11T09:06:15;7.60;91.90
59572;DHT22;59406;45.602;11.904;2022-12-11T09:08:43;7.60;91.90
59572;DHT22;59406;45.602;11.904;2022-12-11T09:11:21;7.60;92.10
59572;DHT22;59406;45.602;11.904;2022-12-11T09:13:47;7.60;92.00
59572;DHT22;59406;45.602;11.904;2022-12-11T09:16:15;7.60;91.70
59572;DHT22;59406;45.602;11.904;2022-12-11T09:18:44;7.70;92.10
59572;DHT22;59406;45.602;11.904;2022-12-11T09:21:16;7.50;92.30
59572;DHT22;59406;45.602;11.904;2022-12-11T09:23:42;7.70;92.50
59572;DHT22;59406;45.602;11.904;2022-12-11T09:26:11;7.80;92.20
59572;DHT22;59406;45.602;11.904;2022-12-11T09:28:39;7.70;91.80
59572;DHT22;59406;45.602;11.904;2022-12-11T09:31:14;7.60;91.90
59572;DHT22;59406;45.602;11.904;2022-12-11T09:33:41;7.70;91.80
59572;DHT22;59406;45.602;11.904;2022-12-11T09:36:08;7.70;91.90
59572;DHT22;59406;45.602;11.904;2022-12-11T09:38:34;7.50;91.80
59572;DHT22;59406;45.602;11.904;2022-12-11T09:41:01;7.50;91.90
59572;DHT22;59406;45.602;11.904;2022-12-11T09:43:58;7.50;91.80
59572;DHT22;59406;45.602;11.904;2022-12-11T09:46:27;7.40;91.70
59572;DHT22;59406;45.602;11.904;2022-12-11T09:48:53;7.50;91.50
59572;DHT22;59406;45.602;11.904;2022-12-11T09:51:35;7.40;91.60
59572;DHT22;59406;45.602;11.904;2022-12-11T09:54:04;7.60;92.00
59572;DHT22;59406;45.602;11.904;2022-12-11T09:56:32;7.60;92.20
59572;DHT22;59406;45.602;11.904;2022-12-11T09:59:10;7.60;92.10
59572;DHT22;59406;45.602;11.904;2022-12-11T10:04:39;7.60;92.20
59572;DHT22;59406;45.602;11.904;2022-12-11T10:07:22;7.60;92.10
59572;DHT22;59406;45.602;11.904;2022-12-11T10:13:03;7.10;91.90
59572;DHT22;59406;45.602;11.904;2022-12-11T10:18:19;7.10;91.50
59572;DHT22;59406;45.602;11.904;2022-12-11T10:20:49;7.20;91.50
59572;DHT22;59406;45.602;11.904;2022-12-11T10:23:40;7.00;92.10
59572;DHT22;59406;45.602;11.904;2022-12-11T10:26:11;7.20;91.80
59572;DHT22;59406;45.602;11.904;2022-12-11T10:28:39;7.20;91.80
59572;DHT22;59406;45.602;11.904;2022-12-11T10:36:19;7.40;92.00
59572;DHT22;59406;45.602;11.904;2022-12-11T10:38:49;7.50;92.30
59572;DHT22;59406;45.602;11.904;2022-12-11T10:41:19;7.20;91.50
59572;DHT22;59406;45.602;11.904;2022-12-11T10:43:49;7.00;90.90
59572;DHT22;59406;45.602;11.904;2022-12-11T10:46:25;7.00;91.80
59572;DHT22;59406;45.602;11.904;2022-12-11T10:48:58;6.80;90.90
59572;DHT22;59406;45.602;11.904;2022-12-11T10:54:07;6.90;91.90
59572;DHT22;59406;45.602;11.904;2022-12-11T10:56:35;6.70;91.20
59572;DHT22;59406;45.602;11.904;2022-12-11T10:59:02;6.70;91.20
59572;DHT22;59406;45.602;11.904;2022-12-11T11:01:30;6.40;90.60
59572;DHT22;59406;45.602;11.904;2022-12-11T11:04:04;6.40;91.30
59572;DHT22;59406;45.602;11.904;2022-12-11T11:06:32;6.50;91.40
59572;DHT22;59406;45.602;11.904;2022-12-11T11:08:59;6.30;91.30
59572;DHT22;59406;45.602;11.904;2022-12-11T11:11:29;6.30;91.40
59572;DHT22;59406;45.602;11.904;2022-12-11T11:14:16;6.10;91.00
59572;DHT22;59406;45.602;11.904;2022-12-11T11:16:45;6.20;91.50
59572;DHT22;59406;45.602;11.904;2022-12-11T11:19:24;6.20;91.90
59572;DHT22;59406;45.602;11.904;2022-12-11T11:21:55;6.20;91.70
59572;DHT22;59406;45.602;11.904;2022-12-11T11:24:40;6.10;91.60
59572;DHT22;59406;45.602;11.904;2022-12-11T11:30:05;6.40;91.90
59572;DHT22;59406;45.602;11.904;2022-12-11T11:32:36;6.40;91.90
59572;DHT22;59406;45.602;11.904;2022-12-11T11:37:40;6.40;91.90
59572;DHT22;59406;45.602;11.904;2022-12-11T11:40:23;6.50;91.60
59572;DHT22;59406;45.602;11.904;2022-12-11T11:45:54;6.40;91.90
59572;DHT22;59406;45.602;11.904;2022-12-11T11:53:53;6.30;91.60
59572;DHT22;59406;45.602;11.904;2022-12-11T12:01:35;5.80;91.90
59572;DHT22;59406;45.602;11.904;2022-12-11T12:04:03;6.10;91.80
59572;DHT22;59406;45.602;11.904;2022-12-11T12:06:35;5.80;91.60
59572;DHT22;59406;45.602;11.904;2022-12-11T12:32:08;6.10;92.00
59572;DHT22;59406;45.602;11.904;2022-12-11T12:34:50;6.20;91.30
59572;DHT22;59406;45.602;11.904;2022-12-11T12:38:13;6.00;91.20
59572;DHT22;59406;45.602;11.904;2022-12-11T12:40:43;6.00;91.80
59572;DHT22;59406;45.602;11.904;2022-12-11T12:48:51;6.10;91.50
59572;DHT22;59406;45.602;11.904;2022-12-11T12:51:20;5.90;91.10
59572;DHT22;59406;45.602;11.904;2022-12-11T12:54:00;5.90;90.90
59572;DHT22;59406;45.602;11.904;2022-12-11T12:56:29;6.00;91.10
59572;DHT22;59406;45.602;11.904;2022-12-11T12:58:56;5.90;91.20
59572;DHT22;59406;45.602;11.904;2022-12-11T13:01:24;5.80;91.40
59572;DHT22;59406;45.602;11.904;2022-12-11T13:04:03;6.00;91.60
59572;DHT22;59406;45.602;11.904;2022-12-11T13:08:56;5.80;91.60
59572;DHT22;59406;45.602;11.904;2022-12-11T13:11:31;6.00;91.60
59572;DHT22;59406;45.602;11.904;2022-12-11T13:16:43;5.90;90.90
59572;DHT22;59406;45.602;11.904;2022-12-11T13:24:32;5.80;90.70
59572;DHT22;59406;45.602;11.904;2022-12-11T13:27:21;6.00;91.20
59572;DHT22;59406;45.602;11.904;2022-12-11T13:29:47;6.10;91.20
59572;DHT22;59406;45.602;11.904;2022-12-11T13:34:49;6.00;90.90
59572;DHT22;59406;45.602;11.904;2022-12-11T13:37:39;6.10;91.10
59572;DHT22;59406;45.602;11.904;2022-12-11T13:40:27;6.20;91.00
59572;DHT22;59406;45.602;11.904;2022-12-11T13:42:57;6.00;91.20
59572;DHT22;59406;45.602;11.904;2022-12-11T13:45:38;6.00;90.70
59572;DHT22;59406;45.602;11.904;2022-12-11T13:48:23;6.00;91.00
59572;DHT22;59406;45.602;11.904;2022-12-11T13:50:51;6.10;90.60
59572;DHT22;59406;45.602;11.904;2022-12-11T13:53:19;6.30;90.90
59572;DHT22;59406;45.602;11.904;2022-12-11T13:56:01;6.10;90.70
59572;DHT22;59406;45.602;11.904;2022-12-11T13:58:28;6.10;91.10
59572;DHT22;59406;45.602;11.904;2022-12-11T14:01:13;6.10;91.00
59572;DHT22;59406;45.602;11.904;2022-12-11T14:04:02;6.20;91.00
59572;DHT22;59406;45.602;11.904;2022-12-11T14:06:30;6.10;91.10
59572;DHT22;59406;45.602;11.904;2022-12-11T14:08:59;6.20;91.20
59572;DHT22;59406;45.602;11.904;2022-12-11T14:11:37;6.30;91.20
59572;DHT22;59406;45.602;11.904;2022-12-11T14:14:14;6.40;91.20
59572;DHT22;59406;45.602;11.904;2022-12-11T14:16:42;6.30;91.20
59572;DHT22;59406;45.602;11.904;2022-12-11T14:19:08;6.30;91.20
59572;DHT22;59406;45.602;11.904;2022-12-11T14:21:35;6.30;91.20
59572;DHT22;59406;45.602;11.904;2022-12-11T14:24:02;6.40;91.20
59572;DHT22;59406;45.602;11.904;2022-12-11T14:26:34;6.50;91.10
59572;DHT22;59406;45.602;11.904;2022-12-11T14:29:04;6.50;91.30
59572;DHT22;59406;45.602;11.904;2022-12-11T14:31:41;6.80;91.10
59572;DHT22;59406;45.602;11.904;2022-12-11T14:34:22;6.80;90.70
59572;DHT22;59406;45.602;11.904;2022-12-11T14:36:49;6.70;90.60
59572;DHT22;59406;45.602;11.904;2022-12-11T14:40:00;6.60;90.70
59572;DHT22;59406;45.602;11.904;2022-12-11T14:42:35;6.70;90.40
59572;DHT22;59406;45.602;11.904;2022-12-11T14:45:21;6.60;90.70
59572;DHT22;59406;45.602;11.904;2022-12-11T14:47:50;6.60;90.90
59572;DHT22;59406;45.602;11.904;2022-12-11T14:50:43;6.80;91.00
59572;DHT22;59406;45.602;11.904;2022-12-11T14:53:13;6.70;90.80
59572;DHT22;59406;45.602;11.904;2022-12-11T14:55:40;6.60;90.70
59572;DHT22;59406;45.602;11.904;2022-12-11T14:58:24;6.70;91.00
59572;DHT22;59406;45.602;11.904;2022-12-11T15:01:02;6.60;91.30
59572;DHT22;59406;45.602;11.904;2022-12-11T15:03:36;6.70;91.30
59572;DHT22;59406;45.602;11.904;2022-12-11T15:06:20;6.80;91.50
59572;DHT22;59406;45.602;11.904;2022-12-11T15:08:48;6.70;91.30
59572;DHT22;59406;45.602;11.904;2022-12-11T15:11:16;6.70;91.30
59572;DHT22;59406;45.602;11.904;2022-12-11T15:13:56;6.60;91.30
59572;DHT22;59406;45.602;11.904;2022-12-11T15:16:25;6.70;91.20
59572;DHT22;59406;45.602;11.904;2022-12-11T15:18:53;6.60;90.90
59572;DHT22;59406;45.602;11.904;2022-12-11T15:21:31;6.60;91.00
59572;DHT22;59406;45.602;11.904;2022-12-11T15:23:59;6.50;91.00
59572;DHT22;59406;45.602;11.904;2022-12-11T15:26:38;6.60;91.00
59572;DHT22;59406;45.602;11.904;2022-12-11T15:31:59;6.70;90.90
59572;DHT22;59406;45.602;11.904;2022-12-11T15:34:27;6.50;90.90
59572;DHT22;59406;45.602;11.904;2022-12-11T15:36:56;6.20;91.10
59572;DHT22;59406;45.602;11.904;2022-12-11T15:39:22;6.30;90.70
59572;DHT22;59406;45.602;11.904;2022-12-11T15:41:48;6.40;90.80
59572;DHT22;59406;45.602;11.904;2022-12-11T15:44:20;6.30;91.00
59572;DHT22;59406;45.602;11.904;2022-12-11T15:46:52;6.30;90.40
59572;DHT22;59406;45.602;11.904;2022-12-11T15:49:18;6.20;90.80
59572;DHT22;59406;45.602;11.904;2022-12-11T15:51:48;6.40;91.10
59572;DHT22;59406;45.602;11.904;2022-12-11T15:54:14;6.20;90.70
59572;DHT22;59406;45.602;11.904;2022-12-11T15:56:40;6.30;91.00
59572;DHT22;59406;45.602;11.904;2022-12-11T15:59:06;6.30;90.90
59572;DHT22;59406;45.602;11.904;2022-12-11T16:01:32;6.10;90.80
59572;DHT22;59406;45.602;11.904;2022-12-11T16:03:59;6.30;90.30
59572;DHT22;59406;45.602;11.904;2022-12-11T16:06:25;6.30;90.80
59572;DHT22;59406;45.602;11.904;2022-12-11T16:08:51;6.30;90.90
59572;DHT22;59406;45.602;11.904;2022-12-11T16:11:17;6.40;91.10
59572;DHT22;59406;45.602;11.904;2022-12-11T16:13:43;6.40;90.80
59572;DHT22;59406;45.602;11.904;2022-12-11T16:16:09;6.30;90.60
59572;DHT22;59406;45.602;11.904;2022-12-11T16:18:35;6.40;90.40
59572;DHT22;59406;45.602;11.904;2022-12-11T16:21:03;6.50;90.50
59572;DHT22;59406;45.602;11.904;2022-12-11T16:23:30;6.40;90.60
59572;DHT22;59406;45.602;11.904;2022-12-11T16:25:56;6.40;90.30
59572;DHT22;59406;45.602;11.904;2022-12-11T16:28:22;6.50;90.60
59572;DHT22;59406;45.602;11.904;2022-12-11T16:30:48;6.50;90.90
59572;DHT22;59406;45.602;11.904;2022-12-11T16:33:14;6.50;90.80
59572;DHT22;59406;45.602;11.904;2022-12-11T16:35:41;6.40;91.30
59572;DHT22;59406;45.602;11.904;2022-12-11T16:38:07;6.40;91.50
59572;DHT22;59406;45.602;11.904;2022-12-11T16:40:34;6.20;91.50
59572;DHT22;59406;45.602;11.904;2022-12-11T16:43:02;6.40;91.40
59572;DHT22;59406;45.602;11.904;2022-12-11T16:45:28;6.20;91.10
59572;DHT22;59406;45.602;11.904;2022-12-11T16:47:54;6.20;91.20
59572;DHT22;59406;45.602;11.904;2022-12-11T16:50:20;6.30;91.00
59572;DHT22;59406;45.602;11.904;2022-12-11T16:52:48;6.30;91.10
59572;DHT22;59406;45.602;11.904;2022-12-11T16:55:14;6.10;90.80
59572;DHT22;59406;45.602;11.904;2022-12-11T16:57:40;6.40;91.00
59572;DHT22;59406;45.602;11.904;2022-12-11T17:00:08;6.40;91.40
59572;DHT22;59406;45.602;11.904;2022-12-11T17:02:35;6.20;91.00
59572;DHT22;59406;45.602;11.904;2022-12-11T17:05:01;6.20;91.20
59572;DHT22;59406;45.602;11.904;2022-12-11T17:07:26;6.20;91.60
59572;DHT22;59406;45.602;11.904;2022-12-11T17:09:52;6.30;91.60
59572;DHT22;59406;45.602;11.904;2022-12-11T17:12:18;6.10;91.60
59572;DHT22;59406;45.602;11.904;2022-12-11T17:14:50;6.30;91.60
59572;DHT22;59406;45.602;11.904;2022-12-11T17:17:16;6.10;91.70
59572;DHT22;59406;45.602;11.904;2022-12-11T17:19:42;6.10;91.70
59572;DHT22;59406;45.602;11.904;2022-12-11T17:22:08;6.00;91.70